sensor_id;sensor_type;location;lat;lon;timestamp;P1;durP1;ratioP1;P2;durP2;ratioP2
16029;SDS011;34770;49.272;11.070;2023-04-19T00:00:13;7.18;;;6.47;;
16029;SDS011;34770;49.272;11.070;2023-04-19T00:02:38;7.57;;;6.70;;
16029;SDS011;34770;49.272;11.070;2023-04-19T00:05:06;7.65;;;6.75;;
16029;SDS011;34770;49.272;11.070;2023-04-19T00:07:32;8.60;;;6.63;;
16029;SDS011;34770;49.272;11.070;2023-04-19T00:09:57;8.18;;;6.72;;
16029;SDS011;34770;49.272;11.070;2023-04-19T00:12:23;8.27;;;7.25;;
16029;SDS011;34770;49.272;11.070;2023-04-19T00:14:48;7.95;;;6.30;;
16029;SDS011;34770;49.272;11.070;2023-04-19T00:17:14;9.50;;;7.75;;
16029;SDS011;34770;49.272;11.070;2023-04-19T00:19:39;8.93;;;7.05;;
16029;SDS011;34770;49.272;11.070;2023-04-19T00:24:32;15.30;;;8.32;;
16029;SDS011;34770;49.272;11.070;2023-04-19T00:26:59;8.43;;;7.47;;
16029;SDS011;34770;49.272;11.070;2023-04-19T00:29:24;8.57;;;7.43;;
16029;SDS011;34770;49.272;11.070;2023-04-19T00:31:50;7.68;;;6.47;;
16029;SDS011;34770;49.272;11.070;2023-04-19T00:34:17;8.90;;;7.75;;
16029;SDS011;34770;49.272;11.070;2023-04-19T00:36:42;8.27;;;7.45;;
16029;SDS011;34770;49.272;11.070;2023-04-19T00:39:07;7.50;;;6.75;;
16029;SDS011;34770;49.272;11.070;2023-04-19T00:41:33;8.32;;;7.47;;
16029;SDS011;34770;49.272;11.070;2023-04-19T00:43:58;8.98;;;7.13;;
16029;SDS011;34770;49.272;11.070;2023-04-19T00:46:24;7.32;;;6.63;;
16029;SDS011;34770;49.272;11.070;2023-04-19T00:48:50;6.78;;;6.18;;
16029;SDS011;34770;49.272;11.070;2023-04-19T00:51:16;8.82;;;6.68;;
16029;SDS011;34770;49.272;11.070;2023-04-19T00:53:42;10.30;;;7.25;;
16029;SDS011;34770;49.272;11.070;2023-04-19T00:56:07;10.48;;;7.88;;
16029;SDS011;34770;49.272;11.070;2023-04-19T00:58:34;7.43;;;6.68;;
16029;SDS011;34770;49.272;11.070;2023-04-19T01:01:02;10.23;;;6.93;;
16029;SDS011;34770;49.272;11.070;2023-04-19T01:03:28;10.60;;;7.68;;
16029;SDS011;34770;49.272;11.070;2023-04-19T01:05:54;6.97;;;6.28;;
16029;SDS011;34770;49.272;11.070;2023-04-19T01:08:21;10.00;;;7.85;;
16029;SDS011;34770;49.272;11.070;2023-04-19T01:10:47;10.77;;;7.35;;
16029;SDS011;34770;49.272;11.070;2023-04-19T01:13:12;9.75;;;7.93;;
16029;SDS011;34770;49.272;11.070;2023-04-19T01:15:38;7.03;;;6.35;;
16029;SDS011;34770;49.272;11.070;2023-04-19T01:18:03;6.90;;;6.20;;
16029;SDS011;34770;49.272;11.070;2023-04-19T01:20:29;8.70;;;6.93;;
16029;SDS011;34770;49.272;11.070;2023-04-19T01:22:54;7.18;;;6.10;;
16029;SDS011;34770;49.272;11.070;2023-04-19T01:25:20;8.05;;;6.05;;
16029;SDS011;34770;49.272;11.070;2023-04-19T01:27:45;8.18;;;7.00;;
16029;SDS011;34770;49.272;11.070;2023-04-19T01:30:11;8.45;;;7.50;;
16029;SDS011;34770;49.272;11.070;2023-04-19T01:32:36;8.45;;;6.47;;
16029;SDS011;34770;49.272;11.070;2023-04-19T01:35:02;10.45;;;7.22;;
16029;SDS011;34770;49.272;11.070;2023-04-19T01:37:28;8.05;;;7.22;;
16029;SDS011;34770;49.272;11.070;2023-04-19T01:39:53;6.38;;;5.70;;
16029;SDS011;34770;49.272;11.070;2023-04-19T01:42:19;6.90;;;6.20;;
16029;SDS011;34770;49.272;11.070;2023-04-19T01:44:44;7.93;;;6.22;;
16029;SDS011;34770;49.272;11.070;2023-04-19T01:47:10;8.02;;;6.90;;
16029;SDS011;34770;49.272;11.070;2023-04-19T01:49:35;8.05;;;6.47;;
16029;SDS011;34770;49.272;11.070;2023-04-19T01:52:01;8.60;;;5.95;;
16029;SDS011;34770;49.272;11.070;2023-04-19T01:54:26;7.68;;;6.85;;
16029;SDS011;34770;49.272;11.070;2023-04-19T01:56:52;6.90;;;6.20;;
16029;SDS011;34770;49.272;11.070;2023-04-19T01:59:17;7.50;;;6.80;;
16029;SDS011;34770;49.272;11.070;2023-04-19T02:01:43;7.20;;;6.50;;
16029;SDS011;34770;49.272;11.070;2023-04-19T02:04:08;7.25;;;6.53;;
16029;SDS011;34770;49.272;11.070;2023-04-19T02:06:34;10.98;;;7.13;;
16029;SDS011;34770;49.272;11.070;2023-04-19T02:09:00;8.70;;;7.15;;
16029;SDS011;34770;49.272;11.070;2023-04-19T02:11:25;9.20;;;6.68;;
16029;SDS011;34770;49.272;11.070;2023-04-19T02:13:50;9.38;;;7.32;;
16029;SDS011;34770;49.272;11.070;2023-04-19T02:16:16;7.00;;;6.30;;
16029;SDS011;34770;49.272;11.070;2023-04-19T02:18:41;9.57;;;6.60;;
16029;SDS011;34770;49.272;11.070;2023-04-19T02:21:07;8.82;;;7.88;;
16029;SDS011;34770;49.272;11.070;2023-04-19T02:23:33;7.72;;;6.88;;
16029;SDS011;34770;49.272;11.070;2023-04-19T02:25:59;6.93;;;6.07;;
16029;SDS011;34770;49.272;11.070;2023-04-19T02:28:27;9.80;;;6.80;;
16029;SDS011;34770;49.272;11.070;2023-04-19T02:30:54;7.97;;;6.97;;
16029;SDS011;34770;49.272;11.070;2023-04-19T02:33:20;8.15;;;7.05;;
16029;SDS011;34770;49.272;11.070;2023-04-19T02:35:46;9.45;;;6.55;;
16029;SDS011;34770;49.272;11.070;2023-04-19T02:38:11;9.85;;;8.00;;
16029;SDS011;34770;49.272;11.070;2023-04-19T02:40:37;9.23;;;7.55;;
16029;SDS011;34770;49.272;11.070;2023-04-19T02:43:02;12.63;;;8.25;;
16029;SDS011;34770;49.272;11.070;2023-04-19T02:45:28;11.63;;;9.05;;
16029;SDS011;34770;49.272;11.070;2023-04-19T02:47:54;9.88;;;8.45;;
16029;SDS011;34770;49.272;11.070;2023-04-19T02:50:20;9.75;;;8.30;;
16029;SDS011;34770;49.272;11.070;2023-04-19T02:52:45;11.68;;;9.05;;
16029;SDS011;34770;49.272;11.070;2023-04-19T02:55:11;10.23;;;8.63;;
16029;SDS011;34770;49.272;11.070;2023-04-19T02:57:36;10.15;;;8.52;;
16029;SDS011;34770;49.272;11.070;2023-04-19T03:00:02;10.38;;;9.32;;
16029;SDS011;34770;49.272;11.070;2023-04-19T03:02:29;9.35;;;8.32;;
16029;SDS011;34770;49.272;11.070;2023-04-19T03:04:55;10.63;;;8.07;;
16029;SDS011;34770;49.272;11.070;2023-04-19T03:07:20;14.20;;;9.05;;
16029;SDS011;34770;49.272;11.070;2023-04-19T03:09:46;9.30;;;7.88;;
16029;SDS011;34770;49.272;11.070;2023-04-19T03:12:11;11.40;;;8.32;;
16029;SDS011;34770;49.272;11.070;2023-04-19T03:14:36;12.63;;;9.05;;
16029;SDS011;34770;49.272;11.070;2023-04-19T03:17:02;10.23;;;8.05;;
16029;SDS011;34770;49.272;11.070;2023-04-19T03:19:27;12.57;;;8.45;;
16029;SDS011;34770;49.272;11.070;2023-04-19T03:21:53;15.43;;;10.05;;
16029;SDS011;34770;49.272;11.070;2023-04-19T03:24:19;12.20;;;9.02;;
16029;SDS011;34770;49.272;11.070;2023-04-19T03:26:53;12.80;;;9.82;;
16029;SDS011;34770;49.272;11.070;2023-04-19T03:29:18;13.07;;;9.38;;
16029;SDS011;34770;49.272;11.070;2023-04-19T03:31:44;12.02;;;10.02;;
16029;SDS011;34770;49.272;11.070;2023-04-19T03:34:09;12.05;;;8.40;;
16029;SDS011;34770;49.272;11.070;2023-04-19T03:36:35;12.55;;;9.43;;
16029;SDS011;34770;49.272;11.070;2023-04-19T03:39:01;10.95;;;9.05;;
16029;SDS011;34770;49.272;11.070;2023-04-19T03:41:27;11.48;;;8.63;;
16029;SDS011;34770;49.272;11.070;2023-04-19T03:43:53;11.43;;;8.65;;
16029;SDS011;34770;49.272;11.070;2023-04-19T03:46:18;12.13;;;8.57;;
16029;SDS011;34770;49.272;11.070;2023-04-19T03:48:44;13.75;;;9.23;;
16029;SDS011;34770;49.272;11.070;2023-04-19T03:51:10;13.43;;;9.52;;
16029;SDS011;34770;49.272;11.070;2023-04-19T03:53:37;13.15;;;10.85;;
16029;SDS011;34770;49.272;11.070;2023-04-19T03:56:02;11.80;;;9.50;;
16029;SDS011;34770;49.272;11.070;2023-04-19T03:58:28;12.18;;;9.75;;
16029;SDS011;34770;49.272;11.070;2023-04-19T04:00:53;12.95;;;10.05;;
16029;SDS011;34770;49.272;11.070;2023-04-19T04:03:19;14.90;;;10.48;;
16029;SDS011;34770;49.272;11.070;2023-04-19T04:05:44;11.88;;;9.15;;
16029;SDS011;34770;49.272;11.070;2023-04-19T04:08:10;14.38;;;10.93;;
16029;SDS011;34770;49.272;11.070;2023-04-19T04:10:35;13.32;;;9.60;;
16029;SDS011;34770;49.272;11.070;2023-04-19T04:13:01;15.93;;;10.57;;
16029;SDS011;34770;49.272;11.070;2023-04-19T04:15:26;12.82;;;10.10;;
16029;SDS011;34770;49.272;11.070;2023-04-19T04:17:52;11.77;;;9.25;;
16029;SDS011;34770;49.272;11.070;2023-04-19T04:20:17;14.93;;;12.30;;
16029;SDS011;34770;49.272;11.070;2023-04-19T04:22:43;13.23;;;10.10;;
16029;SDS011;34770;49.272;11.070;2023-04-19T04:25:10;14.60;;;10.07;;
16029;SDS011;34770;49.272;11.070;2023-04-19T04:27:36;12.50;;;9.27;;
16029;SDS011;34770;49.272;11.070;2023-04-19T04:30:03;11.90;;;8.63;;
16029;SDS011;34770;49.272;11.070;2023-04-19T04:32:30;10.93;;;9.15;;
16029;SDS011;34770;49.272;11.070;2023-04-19T04:35:00;14.45;;;10.10;;
16029;SDS011;34770;49.272;11.070;2023-04-19T04:37:26;11.50;;;9.15;;
16029;SDS011;34770;49.272;11.070;2023-04-19T04:39:51;12.35;;;10.05;;
16029;SDS011;34770;49.272;11.070;2023-04-19T04:42:17;12.02;;;8.60;;
16029;SDS011;34770;49.272;11.070;2023-04-19T04:44:45;12.90;;;9.10;;
16029;SDS011;34770;49.272;11.070;2023-04-19T04:47:14;14.55;;;9.45;;
16029;SDS011;34770;49.272;11.070;2023-04-19T04:49:39;12.25;;;9.77;;
16029;SDS011;34770;49.272;11.070;2023-04-19T04:52:04;14.30;;;10.82;;
16029;SDS011;34770;49.272;11.070;2023-04-19T04:54:30;13.13;;;10.35;;
16029;SDS011;34770;49.272;11.070;2023-04-19T04:56:57;11.20;;;8.27;;
16029;SDS011;34770;49.272;11.070;2023-04-19T04:59:23;14.18;;;10.18;;
16029;SDS011;34770;49.272;11.070;2023-04-19T05:01:48;12.43;;;9.18;;
16029;SDS011;34770;49.272;11.070;2023-04-19T05:04:14;10.20;;;9.00;;
16029;SDS011;34770;49.272;11.070;2023-04-19T05:06:39;12.70;;;9.35;;
16029;SDS011;34770;49.272;11.070;2023-04-19T05:09:05;13.50;;;10.15;;
16029;SDS011;34770;49.272;11.070;2023-04-19T05:11:31;11.35;;;8.82;;
16029;SDS011;34770;49.272;11.070;2023-04-19T05:13:57;12.52;;;9.45;;
16029;SDS011;34770;49.272;11.070;2023-04-19T05:16:22;12.18;;;8.88;;
16029;SDS011;34770;49.272;11.070;2023-04-19T05:18:48;13.85;;;10.07;;
16029;SDS011;34770;49.272;11.070;2023-04-19T05:21:13;12.05;;;9.70;;
16029;SDS011;34770;49.272;11.070;2023-04-19T05:23:38;13.85;;;10.73;;
16029;SDS011;34770;49.272;11.070;2023-04-19T05:26:04;11.50;;;8.75;;
16029;SDS011;34770;49.272;11.070;2023-04-19T05:28:30;9.15;;;8.20;;
16029;SDS011;34770;49.272;11.070;2023-04-19T05:30:55;9.77;;;8.07;;
16029;SDS011;34770;49.272;11.070;2023-04-19T05:33:21;12.77;;;9.93;;
16029;SDS011;34770;49.272;11.070;2023-04-19T05:35:46;10.90;;;8.75;;
16029;SDS011;34770;49.272;11.070;2023-04-19T05:38:12;9.93;;;8.35;;
16029;SDS011;34770;49.272;11.070;2023-04-19T05:40:37;10.73;;;8.75;;
16029;SDS011;34770;49.272;11.070;2023-04-19T05:43:04;10.48;;;9.10;;
16029;SDS011;34770;49.272;11.070;2023-04-19T05:45:29;15.60;;;12.32;;
16029;SDS011;34770;49.272;11.070;2023-04-19T05:47:55;13.60;;;10.43;;
16029;SDS011;34770;49.272;11.070;2023-04-19T05:50:20;12.98;;;9.90;;
16029;SDS011;34770;49.272;11.070;2023-04-19T05:52:46;17.00;;;12.65;;
16029;SDS011;34770;49.272;11.070;2023-04-19T05:55:11;15.32;;;11.57;;
16029;SDS011;34770;49.272;11.070;2023-04-19T05:57:37;14.43;;;9.80;;
16029;SDS011;34770;49.272;11.070;2023-04-19T06:00:03;13.00;;;9.82;;
16029;SDS011;34770;49.272;11.070;2023-04-19T06:02:29;13.65;;;10.80;;
16029;SDS011;34770;49.272;11.070;2023-04-19T06:04:54;13.52;;;11.13;;
16029;SDS011;34770;49.272;11.070;2023-04-19T06:07:22;14.40;;;10.23;;
16029;SDS011;34770;49.272;11.070;2023-04-19T06:09:48;14.38;;;9.52;;
16029;SDS011;34770;49.272;11.070;2023-04-19T06:12:13;14.32;;;10.60;;
16029;SDS011;34770;49.272;11.070;2023-04-19T06:14:39;15.38;;;10.98;;
16029;SDS011;34770;49.272;11.070;2023-04-19T06:17:04;15.65;;;10.13;;
16029;SDS011;34770;49.272;11.070;2023-04-19T06:19:30;13.90;;;11.20;;
16029;SDS011;34770;49.272;11.070;2023-04-19T06:21:58;15.35;;;10.82;;
16029;SDS011;34770;49.272;11.070;2023-04-19T06:24:24;13.45;;;10.60;;
16029;SDS011;34770;49.272;11.070;2023-04-19T06:26:50;17.48;;;12.85;;
16029;SDS011;34770;49.272;11.070;2023-04-19T06:29:16;12.98;;;10.65;;
16029;SDS011;34770;49.272;11.070;2023-04-19T06:31:44;15.35;;;11.60;;
16029;SDS011;34770;49.272;11.070;2023-04-19T06:34:10;15.02;;;11.48;;
16029;SDS011;34770;49.272;11.070;2023-04-19T06:36:35;14.95;;;10.85;;
16029;SDS011;34770;49.272;11.070;2023-04-19T06:39:01;13.27;;;10.93;;
16029;SDS011;34770;49.272;11.070;2023-04-19T06:41:26;27.08;;;13.32;;
16029;SDS011;34770;49.272;11.070;2023-04-19T06:43:52;16.38;;;11.82;;
16029;SDS011;34770;49.272;11.070;2023-04-19T06:46:17;15.98;;;12.13;;
16029;SDS011;34770;49.272;11.070;2023-04-19T06:48:42;14.75;;;10.90;;
16029;SDS011;34770;49.272;11.070;2023-04-19T06:51:08;15.90;;;10.80;;
16029;SDS011;34770;49.272;11.070;2023-04-19T06:53:33;14.50;;;11.13;;
16029;SDS011;34770;49.272;11.070;2023-04-19T06:56:00;18.63;;;12.02;;
16029;SDS011;34770;49.272;11.070;2023-04-19T06:58:28;16.90;;;11.65;;
16029;SDS011;34770;49.272;11.070;2023-04-19T07:00:54;17.02;;;10.45;;
16029;SDS011;34770;49.272;11.070;2023-04-19T07:03:20;17.05;;;11.30;;
16029;SDS011;34770;49.272;11.070;2023-04-19T07:05:46;13.05;;;10.80;;
16029;SDS011;34770;49.272;11.070;2023-04-19T07:08:11;14.70;;;11.02;;
16029;SDS011;34770;49.272;11.070;2023-04-19T07:10:37;16.33;;;12.48;;
16029;SDS011;34770;49.272;11.070;2023-04-19T07:13:02;16.35;;;11.90;;
16029;SDS011;34770;49.272;11.070;2023-04-19T07:15:27;15.00;;;10.57;;
16029;SDS011;34770;49.272;11.070;2023-04-19T07:17:53;15.75;;;10.90;;
16029;SDS011;34770;49.272;11.070;2023-04-19T07:20:19;14.73;;;10.63;;
16029;SDS011;34770;49.272;11.070;2023-04-19T07:22:45;15.90;;;11.10;;
16029;SDS011;34770;49.272;11.070;2023-04-19T07:25:11;12.23;;;10.75;;
16029;SDS011;34770;49.272;11.070;2023-04-19T07:27:36;15.80;;;11.43;;
16029;SDS011;34770;49.272;11.070;2023-04-19T07:30:02;15.52;;;11.70;;
16029;SDS011;34770;49.272;11.070;2023-04-19T07:32:28;16.90;;;11.50;;
16029;SDS011;34770;49.272;11.070;2023-04-19T07:34:55;13.18;;;10.73;;
16029;SDS011;34770;49.272;11.070;2023-04-19T07:37:20;16.30;;;11.90;;
16029;SDS011;34770;49.272;11.070;2023-04-19T07:39:46;15.20;;;11.50;;
16029;SDS011;34770;49.272;11.070;2023-04-19T07:42:11;15.45;;;11.77;;
16029;SDS011;34770;49.272;11.070;2023-04-19T07:44:37;17.52;;;11.82;;
16029;SDS011;34770;49.272;11.070;2023-04-19T07:47:03;18.58;;;12.30;;
16029;SDS011;34770;49.272;11.070;2023-04-19T07:49:29;32.00;;;12.40;;
16029;SDS011;34770;49.272;11.070;2023-04-19T07:51:58;15.68;;;12.30;;
16029;SDS011;34770;49.272;11.070;2023-04-19T07:54:25;17.23;;;12.35;;
16029;SDS011;34770;49.272;11.070;2023-04-19T07:56:51;17.50;;;11.93;;
16029;SDS011;34770;49.272;11.070;2023-04-19T07:59:16;17.02;;;12.65;;
16029;SDS011;34770;49.272;11.070;2023-04-19T08:01:42;20.70;;;13.15;;
16029;SDS011;34770;49.272;11.070;2023-04-19T08:04:07;16.20;;;12.35;;
16029;SDS011;34770;49.272;11.070;2023-04-19T08:06:33;16.85;;;12.65;;
16029;SDS011;34770;49.272;11.070;2023-04-19T08:09:01;16.20;;;12.00;;
16029;SDS011;34770;49.272;11.070;2023-04-19T08:11:27;18.33;;;13.00;;
16029;SDS011;34770;49.272;11.070;2023-04-19T08:13:53;16.80;;;12.30;;
16029;SDS011;34770;49.272;11.070;2023-04-19T08:16:18;16.55;;;12.68;;
16029;SDS011;34770;49.272;11.070;2023-04-19T08:18:44;14.88;;;12.80;;
16029;SDS011;34770;49.272;11.070;2023-04-19T08:21:20;16.63;;;12.45;;
16029;SDS011;34770;49.272;11.070;2023-04-19T08:23:46;17.98;;;13.20;;
16029;SDS011;34770;49.272;11.070;2023-04-19T08:26:11;18.75;;;14.32;;
16029;SDS011;34770;49.272;11.070;2023-04-19T08:28:37;19.05;;;13.65;;
16029;SDS011;34770;49.272;11.070;2023-04-19T08:31:05;21.67;;;14.48;;
16029;SDS011;34770;49.272;11.070;2023-04-19T08:33:34;22.92;;;15.90;;
16029;SDS011;34770;49.272;11.070;2023-04-19T08:36:00;24.05;;;15.85;;
16029;SDS011;34770;49.272;11.070;2023-04-19T08:38:25;21.80;;;16.67;;
16029;SDS011;34770;49.272;11.070;2023-04-19T08:40:52;22.90;;;16.92;;
16029;SDS011;34770;49.272;11.070;2023-04-19T08:43:19;29.70;;;17.45;;
16029;SDS011;34770;49.272;11.070;2023-04-19T08:45:49;23.55;;;15.98;;
16029;SDS011;34770;49.272;11.070;2023-04-19T08:48:15;26.10;;;16.20;;
16029;SDS011;34770;49.272;11.070;2023-04-19T08:50:42;25.70;;;17.00;;
16029;SDS011;34770;49.272;11.070;2023-04-19T08:53:08;30.25;;;19.10;;
16029;SDS011;34770;49.272;11.070;2023-04-19T08:55:35;26.67;;;17.73;;
16029;SDS011;34770;49.272;11.070;2023-04-19T08:58:05;27.70;;;17.88;;
16029;SDS011;34770;49.272;11.070;2023-04-19T09:00:36;24.00;;;17.88;;
16029;SDS011;34770;49.272;11.070;2023-04-19T09:03:03;23.20;;;15.88;;
16029;SDS011;34770;49.272;11.070;2023-04-19T09:05:31;25.80;;;16.13;;
16029;SDS011;34770;49.272;11.070;2023-04-19T09:10:51;24.17;;;15.23;;
16029;SDS011;34770;49.272;11.070;2023-04-19T09:13:18;21.52;;;15.82;;
16029;SDS011;34770;49.272;11.070;2023-04-19T09:15:43;25.10;;;16.30;;
16029;SDS011;34770;49.272;11.070;2023-04-19T09:18:10;22.17;;;16.20;;
16029;SDS011;34770;49.272;11.070;2023-04-19T09:20:40;22.05;;;16.83;;
16029;SDS011;34770;49.272;11.070;2023-04-19T09:23:08;25.27;;;17.88;;
16029;SDS011;34770;49.272;11.070;2023-04-19T09:25:38;28.75;;;19.73;;
16029;SDS011;34770;49.272;11.070;2023-04-19T09:28:09;26.63;;;18.23;;
16029;SDS011;34770;49.272;11.070;2023-04-19T09:30:36;27.15;;;17.98;;
16029;SDS011;34770;49.272;11.070;2023-04-19T09:33:02;26.58;;;17.60;;
16029;SDS011;34770;49.272;11.070;2023-04-19T09:35:40;30.45;;;19.45;;
16029;SDS011;34770;49.272;11.070;2023-04-19T09:38:14;30.95;;;19.17;;
16029;SDS011;34770;49.272;11.070;2023-04-19T09:40:40;27.65;;;20.20;;
16029;SDS011;34770;49.272;11.070;2023-04-19T09:43:07;26.98;;;18.55;;
16029;SDS011;34770;49.272;11.070;2023-04-19T09:45:42;28.52;;;20.10;;
16029;SDS011;34770;49.272;11.070;2023-04-19T09:48:09;26.92;;;19.83;;
16029;SDS011;34770;49.272;11.070;2023-04-19T09:50:36;27.67;;;18.52;;
16029;SDS011;34770;49.272;11.070;2023-04-19T09:53:16;25.70;;;18.30;;
16029;SDS011;34770;49.272;11.070;2023-04-19T09:55:43;25.48;;;20.45;;
16029;SDS011;34770;49.272;11.070;2023-04-19T09:58:13;25.83;;;19.02;;
16029;SDS011;34770;49.272;11.070;2023-04-19T10:00:42;26.05;;;19.23;;
16029;SDS011;34770;49.272;11.070;2023-04-19T10:03:09;28.88;;;20.13;;
16029;SDS011;34770;49.272;11.070;2023-04-19T10:05:38;25.60;;;18.58;;
16029;SDS011;34770;49.272;11.070;2023-04-19T10:08:11;21.92;;;17.08;;
16029;SDS011;34770;49.272;11.070;2023-04-19T10:10:39;22.98;;;17.42;;
16029;SDS011;34770;49.272;11.070;2023-04-19T10:13:06;22.10;;;16.98;;
16029;SDS011;34770;49.272;11.070;2023-04-19T10:15:35;24.67;;;16.58;;
16029;SDS011;34770;49.272;11.070;2023-04-19T10:18:02;21.75;;;16.83;;
16029;SDS011;34770;49.272;11.070;2023-04-19T10:20:34;21.92;;;15.60;;
16029;SDS011;34770;49.272;11.070;2023-04-19T10:23:06;33.28;;;22.50;;
16029;SDS011;34770;49.272;11.070;2023-04-19T10:25:35;20.00;;;14.02;;
16029;SDS011;34770;49.272;11.070;2023-04-19T10:28:01;17.85;;;14.50;;
16029;SDS011;34770;49.272;11.070;2023-04-19T10:30:27;20.15;;;15.50;;
16029;SDS011;34770;49.272;11.070;2023-04-19T10:32:54;19.17;;;15.15;;
16029;SDS011;34770;49.272;11.070;2023-04-19T10:35:41;16.70;;;13.70;;
16029;SDS011;34770;49.272;11.070;2023-04-19T10:43:19;15.95;;;12.48;;
16029;SDS011;34770;49.272;11.070;2023-04-19T10:45:45;16.95;;;13.00;;
16029;SDS011;34770;49.272;11.070;2023-04-19T10:51:01;17.63;;;12.50;;
16029;SDS011;34770;49.272;11.070;2023-04-19T10:53:47;17.60;;;11.40;;
16029;SDS011;34770;49.272;11.070;2023-04-19T10:56:17;15.57;;;12.00;;
16029;SDS011;34770;49.272;11.070;2023-04-19T11:04:10;21.50;;;15.77;;
16029;SDS011;34770;49.272;11.070;2023-04-19T11:06:41;12.77;;;11.05;;
16029;SDS011;34770;49.272;11.070;2023-04-19T11:12:04;8.85;;;7.70;;
16029;SDS011;34770;49.272;11.070;2023-04-19T11:14:40;11.50;;;8.13;;
16029;SDS011;34770;49.272;11.070;2023-04-19T11:17:19;12.45;;;9.27;;
16029;SDS011;34770;49.272;11.070;2023-04-19T11:19:56;11.48;;;8.10;;
16029;SDS011;34770;49.272;11.070;2023-04-19T11:22:34;9.10;;;7.28;;
16029;SDS011;34770;49.272;11.070;2023-04-19T11:27:34;8.82;;;6.97;;
16029;SDS011;34770;49.272;11.070;2023-04-19T11:30:04;10.60;;;7.40;;
16029;SDS011;34770;49.272;11.070;2023-04-19T11:32:32;8.68;;;6.70;;
16029;SDS011;34770;49.272;11.070;2023-04-19T11:35:02;10.65;;;7.15;;
16029;SDS011;34770;49.272;11.070;2023-04-19T11:37:32;7.70;;;6.90;;
16029;SDS011;34770;49.272;11.070;2023-04-19T11:39:58;8.57;;;6.57;;
16029;SDS011;34770;49.272;11.070;2023-04-19T11:42:24;7.38;;;6.57;;
16029;SDS011;34770;49.272;11.070;2023-04-19T11:44:50;7.60;;;6.07;;
16029;SDS011;34770;49.272;11.070;2023-04-19T11:47:16;8.23;;;6.25;;
16029;SDS011;34770;49.272;11.070;2023-04-19T11:49:42;6.40;;;5.05;;
16029;SDS011;34770;49.272;11.070;2023-04-19T11:52:07;8.13;;;6.90;;
16029;SDS011;34770;49.272;11.070;2023-04-19T11:54:32;5.53;;;4.97;;
16029;SDS011;34770;49.272;11.070;2023-04-19T11:57:02;8.10;;;5.90;;
16029;SDS011;34770;49.272;11.070;2023-04-19T11:59:29;6.93;;;5.65;;
16029;SDS011;34770;49.272;11.070;2023-04-19T12:02:03;8.02;;;6.00;;
16029;SDS011;34770;49.272;11.070;2023-04-19T12:04:29;6.85;;;6.05;;
16029;SDS011;34770;49.272;11.070;2023-04-19T12:06:55;6.65;;;4.72;;
16029;SDS011;34770;49.272;11.070;2023-04-19T12:09:23;6.75;;;5.68;;
16029;SDS011;34770;49.272;11.070;2023-04-19T12:11:48;6.85;;;4.70;;
16029;SDS011;34770;49.272;11.070;2023-04-19T12:14:15;5.90;;;5.28;;
16029;SDS011;34770;49.272;11.070;2023-04-19T12:17:01;7.30;;;4.63;;
16029;SDS011;34770;49.272;11.070;2023-04-19T12:19:33;4.43;;;4.03;;
16029;SDS011;34770;49.272;11.070;2023-04-19T12:24:28;5.53;;;4.65;;
16029;SDS011;34770;49.272;11.070;2023-04-19T12:26:54;4.93;;;4.05;;
16029;SDS011;34770;49.272;11.070;2023-04-19T12:29:25;5.53;;;5.00;;
16029;SDS011;34770;49.272;11.070;2023-04-19T12:31:51;5.47;;;4.90;;
16029;SDS011;34770;49.272;11.070;2023-04-19T12:34:16;4.50;;;4.10;;
16029;SDS011;34770;49.272;11.070;2023-04-19T12:36:42;8.38;;;3.92;;
16029;SDS011;34770;49.272;11.070;2023-04-19T12:39:07;6.38;;;4.47;;
16029;SDS011;34770;49.272;11.070;2023-04-19T12:41:33;3.97;;;3.58;;
16029;SDS011;34770;49.272;11.070;2023-04-19T12:43:58;5.07;;;4.13;;
16029;SDS011;34770;49.272;11.070;2023-04-19T12:46:24;5.75;;;3.53;;
16029;SDS011;34770;49.272;11.070;2023-04-19T12:48:49;4.97;;;4.22;;
16029;SDS011;34770;49.272;11.070;2023-04-19T12:51:15;4.78;;;4.28;;
16029;SDS011;34770;49.272;11.070;2023-04-19T12:53:40;3.58;;;3.28;;
16029;SDS011;34770;49.272;11.070;2023-04-19T12:56:06;6.63;;;3.60;;
16029;SDS011;34770;49.272;11.070;2023-04-19T12:58:32;4.10;;;3.38;;
16029;SDS011;34770;49.272;11.070;2023-04-19T13:00:57;3.00;;;2.60;;
16029;SDS011;34770;49.272;11.070;2023-04-19T13:03:23;2.83;;;2.50;;
16029;SDS011;34770;49.272;11.070;2023-04-19T13:05:48;2.38;;;2.17;;
16029;SDS011;34770;49.272;11.070;2023-04-19T13:08:14;2.97;;;2.67;;
16029;SDS011;34770;49.272;11.070;2023-04-19T13:10:39;2.40;;;2.20;;
16029;SDS011;34770;49.272;11.070;2023-04-19T13:13:05;2.70;;;2.45;;
16029;SDS011;34770;49.272;11.070;2023-04-19T13:15:30;3.72;;;2.35;;
16029;SDS011;34770;49.272;11.070;2023-04-19T13:17:56;3.03;;;2.00;;
16029;SDS011;34770;49.272;11.070;2023-04-19T13:20:21;1.65;;;1.55;;
16029;SDS011;34770;49.272;11.070;2023-04-19T13:22:47;2.10;;;1.67;;
16029;SDS011;34770;49.272;11.070;2023-04-19T13:25:12;2.22;;;1.70;;
16029;SDS011;34770;49.272;11.070;2023-04-19T13:27:38;3.55;;;1.83;;
16029;SDS011;34770;49.272;11.070;2023-04-19T13:30:03;4.35;;;1.77;;
16029;SDS011;34770;49.272;11.070;2023-04-19T13:32:29;4.65;;;1.95;;
16029;SDS011;34770;49.272;11.070;2023-04-19T13:34:55;1.75;;;1.65;;
16029;SDS011;34770;49.272;11.070;2023-04-19T13:37:20;3.33;;;1.70;;
16029;SDS011;34770;49.272;11.070;2023-04-19T13:39:46;1.88;;;1.60;;
16029;SDS011;34770;49.272;11.070;2023-04-19T13:42:11;2.90;;;1.73;;
16029;SDS011;34770;49.272;11.070;2023-04-19T13:44:38;2.20;;;1.60;;
16029;SDS011;34770;49.272;11.070;2023-04-19T13:47:03;2.83;;;1.90;;
16029;SDS011;34770;49.272;11.070;2023-04-19T13:49:29;2.28;;;1.75;;
16029;SDS011;34770;49.272;11.070;2023-04-19T13:51:54;3.78;;;1.80;;
16029;SDS011;34770;49.272;11.070;2023-04-19T13:54:20;2.03;;;1.73;;
16029;SDS011;34770;49.272;11.070;2023-04-19T13:56:46;2.60;;;1.80;;
16029;SDS011;34770;49.272;11.070;2023-04-19T13:59:11;1.67;;;1.52;;
16029;SDS011;34770;49.272;11.070;2023-04-19T14:01:37;4.13;;;1.40;;
16029;SDS011;34770;49.272;11.070;2023-04-19T14:04:02;4.43;;;2.17;;
16029;SDS011;34770;49.272;11.070;2023-04-19T14:06:28;2.28;;;1.70;;
16029;SDS011;34770;49.272;11.070;2023-04-19T14:08:54;1.85;;;1.50;;
16029;SDS011;34770;49.272;11.070;2023-04-19T14:11:19;3.83;;;1.50;;
16029;SDS011;34770;49.272;11.070;2023-04-19T14:13:45;2.92;;;1.70;;
16029;SDS011;34770;49.272;11.070;2023-04-19T14:16:12;1.88;;;1.77;;
16029;SDS011;34770;49.272;11.070;2023-04-19T14:18:38;2.22;;;1.85;;
16029;SDS011;34770;49.272;11.070;2023-04-19T14:21:03;1.90;;;1.80;;
16029;SDS011;34770;49.272;11.070;2023-04-19T14:23:29;2.15;;;1.58;;
16029;SDS011;34770;49.272;11.070;2023-04-19T14:25:55;3.13;;;1.83;;
16029;SDS011;34770;49.272;11.070;2023-04-19T14:28:20;2.30;;;1.45;;
16029;SDS011;34770;49.272;11.070;2023-04-19T14:30:46;2.20;;;1.98;;
16029;SDS011;34770;49.272;11.070;2023-04-19T14:33:11;3.95;;;2.42;;
16029;SDS011;34770;49.272;11.070;2023-04-19T14:35:37;2.50;;;1.40;;
16029;SDS011;34770;49.272;11.070;2023-04-19T14:38:02;2.15;;;1.85;;
16029;SDS011;34770;49.272;11.070;2023-04-19T14:40:28;3.20;;;1.90;;
16029;SDS011;34770;49.272;11.070;2023-04-19T14:42:53;3.28;;;2.03;;